Colorado Springs, CO (80928)

1:52 PM MDT on July 06, 2015 (GMT -0600)
21 Miles NE of Airport | | Change Station
CLOSE
Current Station
Personal Weather Station
Location: Pueblo, CO
Elevation: 5000 ft
Nearby Weather Stations

Elev 5000 ft 38.45 °N, 104.34 °W | Updated 1 minute ago

Overcast
Overcast
74.6 °F
Feels Like 77 °F
N
25.0
Wind Variable Wind from NNE
Gusts 30.0 mph

Today
High -- | Low -- °F
--% Chance of Precip.
Yesterday
High -- | Low -- °F
Precip. -- in
5:39 AM 8:25 PM
Waning Gibbous, 73% visible
Pressure 30.25 in
Visibility 10.0 miles
Clouds Overcast 4000 ft
Heat Index 77 °F
Dew Point 57 °F
Humidity 54%
Rainfall 0.00 in
Snow Depth Not available.
UV 4 out of 12
Pollen 2.80 out of 12
Air Quality Not available.
Flu Activity Not available.
SPECI KFCS 061942Z AUTO 05006KT 10SM -RA VCTS OVC040 20/15 A3025 RMK AO2 LTG DSNT N DZB22E27RAB27 TSB27E42 $

More Conditions Fewer Conditions

Pressure 30.25 in
Visibility 10.0 miles
Clouds Overcast 4000 ft
Heat Index 77 °F
Dew Point 57 °F
Humidity 54%
Rainfall 0.00 in
Snow Depth Not available.
UV 4 out of 12
Pollen 2.80 out of 12
Air Quality Not available.
Flu Activity Not available.
SPECI KFCS 061942Z AUTO 05006KT 10SM -RA VCTS OVC040 20/15 A3025 RMK AO2 LTG DSNT N DZB22E27RAB27 TSB27E42 $

More Conditions Fewer Conditions

10-Day Weather Forecast

×

Almanac

Astronomy

Jul. 06, 2015 Rise Set
Actual Time
Civil Twilight
Nautical Twilight
Astronomical Twilight
Moon
Length of Visible Light
Length of Day
Tomorrow will be .
, % of the Moon is Illuminated

Today's Extremes

State Highs State Lows

Community

WunderPhotos

Upload Photos

1,835,625 photos uploaded!

WunderBlogs® & News

Nearby

Air Quality

  Air Quality AQ Index Pollutant
Not available.

Snow Depth

Station Depth Elevation

Earthquake Activity

City Distance Mag. Time & Date
Minimum magnitude displayed is 2.5.

Coastal Water Temperatures

Place Temperature

Stations

Nearby Weather Stations

Station Location Temp. Windchill Dew Point Humidity Wind Precip. Elev Updated Type